createdAt,value
2018-03-18T00:01:56.173Z,93.70
2018-03-18T00:04:23.659Z,93.70
2018-03-18T00:06:51.124Z,93.40
2018-03-18T00:09:18.613Z,93.40
2018-03-18T00:11:46.868Z,93.70
2018-03-18T00:14:14.374Z,93.70
2018-03-18T00:16:41.837Z,94.00
2018-03-18T00:19:09.306Z,94.40
2018-03-18T00:21:36.773Z,94.10
2018-03-18T00:24:04.254Z,94.50
2018-03-18T00:26:31.717Z,94.50
2018-03-18T00:28:59.200Z,94.70
2018-03-18T00:31:26.667Z,94.60
2018-03-18T00:33:54.140Z,94.50
2018-03-18T00:36:22.387Z,94.50
2018-03-18T00:38:49.860Z,94.50
2018-03-18T00:41:17.337Z,95.10
2018-03-18T00:43:44.813Z,95.20
2018-03-18T00:46:13.036Z,95.40
2018-03-18T00:48:40.535Z,95.10
2018-03-18T00:51:08.011Z,95.20
2018-03-18T00:53:35.494Z,95.10
2018-03-18T00:56:03.726Z,94.80
2018-03-18T00:58:31.192Z,94.80
2018-03-18T01:00:58.665Z,95.50
2018-03-18T01:03:26.141Z,95.50
2018-03-18T01:05:54.392Z,95.80
2018-03-18T01:08:21.858Z,95.50
2018-03-18T01:10:49.346Z,95.10
2018-03-18T01:13:16.834Z,95.10
2018-03-18T01:15:44.304Z,94.80
2018-03-18T01:18:11.779Z,94.50
2018-03-18T01:20:39.260Z,94.20
2018-03-18T01:23:06.753Z,94.20
2018-03-18T01:25:34.222Z,94.50
2018-03-18T01:28:01.697Z,94.70
2018-03-18T01:30:29.959Z,94.30
2018-03-18T01:32:57.407Z,94.30
2018-03-18T01:35:24.885Z,94.30
2018-03-18T01:37:52.356Z,94.50
2018-03-18T01:40:19.834Z,94.30
2018-03-18T01:42:48.065Z,94.20
2018-03-18T01:45:15.540Z,94.20
2018-03-18T01:47:43.021Z,94.10
2018-03-18T01:50:10.485Z,94.50
2018-03-18T01:52:37.947Z,94.30
2018-03-18T01:55:05.410Z,94.30
2018-03-18T01:57:32.890Z,93.90
2018-03-18T02:00:01.130Z,94.00
2018-03-18T02:02:28.605Z,94.00
2018-03-18T02:04:56.086Z,94.10
2018-03-18T02:07:23.555Z,94.00
2018-03-18T02:09:51.790Z,94.00
2018-03-18T02:12:20.012Z,94.10
2018-03-18T02:14:48.252Z,94.30
2018-03-18T02:17:15.971Z,94.30
2018-03-18T02:19:44.204Z,94.10
2018-03-18T02:22:11.680Z,94.10
2018-03-18T02:24:39.144Z,94.20
2018-03-18T02:27:06.655Z,93.90
2018-03-18T02:29:34.122Z,94.20
2018-03-18T02:32:01.603Z,94.20
2018-03-18T02:34:29.066Z,93.70
2018-03-18T02:36:56.535Z,94.20
2018-03-18T02:39:23.999Z,93.90
2018-03-18T02:41:51.463Z,93.80
2018-03-18T02:44:18.989Z,93.80
2018-03-18T02:46:48.424Z,93.90
2018-03-18T02:49:15.881Z,93.90
2018-03-18T02:51:43.349Z,93.90
2018-03-18T02:54:10.818Z,93.60
2018-03-18T02:56:38.291Z,93.90
2018-03-18T02:59:05.761Z,93.50
2018-03-18T03:01:34.009Z,93.50
2018-03-18T03:04:01.468Z,93.50
2018-03-18T03:06:28.940Z,93.50
2018-03-18T03:08:56.393Z,93.40
2018-03-18T03:11:23.873Z,93.70
2018-03-18T03:13:51.337Z,93.60
2018-03-18T03:16:18.800Z,93.70
2018-03-18T03:18:46.280Z,93.40
2018-03-18T03:21:14.518Z,93.90
2018-03-18T03:23:41.994Z,93.60
2018-03-18T03:26:09.470Z,93.50
2018-03-18T03:28:36.952Z,93.90
2018-03-18T03:31:05.182Z,93.70
2018-03-18T03:33:32.662Z,93.70
2018-03-18T03:36:00.135Z,93.70
2018-03-18T03:38:27.608Z,93.60
2018-03-18T03:40:55.053Z,93.60
2018-03-18T03:43:22.536Z,93.50
2018-03-18T03:45:50.763Z,93.80
2018-03-18T03:48:18.244Z,93.70
2018-03-18T03:50:45.705Z,94.20
2018-03-18T03:53:13.173Z,94.20
2018-03-18T03:55:40.629Z,94.10
2018-03-18T03:58:08.105Z,94.30
2018-03-18T04:00:35.552Z,94.30
2018-03-18T04:03:03.034Z,94.10
2018-03-18T04:05:30.484Z,94.20
2018-03-18T04:07:57.974Z,94.20
2018-03-18T04:10:25.441Z,94.10
2018-03-18T04:12:53.680Z,94.20
2018-03-18T04:15:21.160Z,94.10
2018-03-18T04:17:48.631Z,93.70
2018-03-18T04:20:16.088Z,93.90
2018-03-18T04:22:43.570Z,94.00
2018-03-18T04:25:11.046Z,93.90
2018-03-18T04:27:39.314Z,93.80
2018-03-18T04:30:06.777Z,93.80
2018-03-18T04:32:35.012Z,93.90
2018-03-18T04:35:02.502Z,93.90
2018-03-18T04:37:29.968Z,93.80
2018-03-18T04:39:57.431Z,93.70
2018-03-18T04:42:24.905Z,93.20
2018-03-18T04:44:52.391Z,93.50
2018-03-18T04:47:20.614Z,93.30
2018-03-18T04:49:48.091Z,93.30
2018-03-18T04:52:15.546Z,93.50
2018-03-18T04:54:43.063Z,93.20
2018-03-18T04:57:10.529Z,93.30
2018-03-18T04:59:37.999Z,93.40
2018-03-18T05:02:05.476Z,93.30
2018-03-18T05:04:32.951Z,93.70
2018-03-18T05:07:00.433Z,93.60
2018-03-18T05:09:27.897Z,93.30
2018-03-18T05:11:55.360Z,93.30
2018-03-18T05:14:22.822Z,93.20
2018-03-18T05:16:50.290Z,94.00
2018-03-18T05:19:18.529Z,93.90
2018-03-18T05:21:46.021Z,93.90
2018-03-18T05:24:13.495Z,94.00
2018-03-18T05:26:40.983Z,93.80
2018-03-18T05:29:09.214Z,94.30
2018-03-18T05:31:36.688Z,94.30
2018-03-18T05:34:04.426Z,94.00
2018-03-18T05:36:31.902Z,94.10
2018-03-18T05:38:59.376Z,94.10
2018-03-18T05:41:26.848Z,94.10
2018-03-18T05:43:54.309Z,93.60
2018-03-18T05:46:21.792Z,93.80
2018-03-18T05:48:50.017Z,93.70
2018-03-18T05:51:17.497Z,93.70
2018-03-18T05:53:44.961Z,93.80
2018-03-18T05:56:12.428Z,93.60
2018-03-18T05:58:39.905Z,93.50
2018-03-18T06:01:07.392Z,93.60
2018-03-18T06:03:35.622Z,93.60
2018-03-18T06:06:03.101Z,93.60
2018-03-18T06:08:30.576Z,93.30
2018-03-18T06:10:58.042Z,93.40
2018-03-18T06:13:25.500Z,93.40
2018-03-18T06:15:52.996Z,93.50
2018-03-18T06:18:21.221Z,93.70
2018-03-18T06:20:48.705Z,93.70
2018-03-18T06:23:16.170Z,93.50
2018-03-18T06:25:43.633Z,93.40
2018-03-18T06:28:11.118Z,93.40
2018-03-18T06:30:39.353Z,93.30
2018-03-18T06:33:06.819Z,93.30
2018-03-18T06:35:34.303Z,92.90
2018-03-18T06:38:01.787Z,93.00
2018-03-18T06:40:30.009Z,92.90
2018-03-18T06:42:57.487Z,92.90
2018-03-18T06:45:24.952Z,92.90
2018-03-18T06:47:52.430Z,93.00
2018-03-18T06:50:19.889Z,92.80
2018-03-18T06:52:47.357Z,92.90
2018-03-18T06:55:14.818Z,92.80
2018-03-18T06:57:42.276Z,92.60
2018-03-18T07:00:09.734Z,92.70
2018-03-18T07:02:37.217Z,92.50
2018-03-18T07:05:04.690Z,92.70
2018-03-18T07:07:32.933Z,92.70
2018-03-18T07:10:00.395Z,92.70
2018-03-18T07:12:27.865Z,92.60
2018-03-18T07:14:55.352Z,92.60
2018-03-18T07:17:23.623Z,92.80
2018-03-18T07:19:51.093Z,92.80
2018-03-18T07:22:19.386Z,92.60
2018-03-18T07:24:46.829Z,92.40
2018-03-18T07:27:14.284Z,92.40
2018-03-18T07:29:42.568Z,92.30
2018-03-18T07:32:10.817Z,92.50
2018-03-18T07:34:38.300Z,92.40
2018-03-18T07:37:05.763Z,92.50
2018-03-18T07:39:33.234Z,92.60
2018-03-18T07:42:00.702Z,92.20
2018-03-18T07:44:28.194Z,92.10
2018-03-18T07:46:55.654Z,92.00
2018-03-18T07:49:23.892Z,92.40
2018-03-18T07:51:51.353Z,92.40
2018-03-18T07:54:18.830Z,92.50
2018-03-18T07:56:46.285Z,92.40
2018-03-18T07:59:13.781Z,92.30
2018-03-18T08:01:41.245Z,92.50
2018-03-18T08:04:08.745Z,92.20
2018-03-18T08:06:36.198Z,92.10
2018-03-18T08:09:03.665Z,92.10
2018-03-18T08:11:31.133Z,92.10
2018-03-18T08:13:58.623Z,92.40
2018-03-18T08:16:26.088Z,92.20
2018-03-18T08:18:53.565Z,92.20
2018-03-18T08:21:21.800Z,91.90
2018-03-18T08:23:49.289Z,91.90
2018-03-18T08:26:16.810Z,92.30
2018-03-18T08:28:44.208Z,92.10
2018-03-18T08:31:11.681Z,92.00
2018-03-18T08:33:39.145Z,92.20
2018-03-18T08:36:06.635Z,92.10
2018-03-18T08:38:34.862Z,92.10
2018-03-18T08:41:03.104Z,91.90
2018-03-18T08:43:31.332Z,91.90
2018-03-18T08:45:58.801Z,91.90
2018-03-18T08:48:26.266Z,92.10
2018-03-18T08:50:53.748Z,92.20
2018-03-18T08:53:21.218Z,92.20
2018-03-18T08:55:49.445Z,92.10
2018-03-18T08:58:16.924Z,92.10
2018-03-18T09:00:44.393Z,92.20
2018-03-18T09:03:11.857Z,92.10
2018-03-18T09:05:39.340Z,92.20
2018-03-18T09:08:06.799Z,92.30
2018-03-18T09:10:34.265Z,92.00
2018-03-18T09:13:01.730Z,92.20
2018-03-18T09:15:29.197Z,92.30
2018-03-18T09:17:56.657Z,92.00
2018-03-18T09:20:24.127Z,92.00
2018-03-18T09:22:51.582Z,91.90
2018-03-18T09:25:19.046Z,92.10
2018-03-18T09:27:47.287Z,91.70
2018-03-18T09:30:14.810Z,91.70
2018-03-18T09:32:42.258Z,91.70
2018-03-18T09:35:10.476Z,91.60
2018-03-18T09:37:37.928Z,91.60
2018-03-18T09:40:05.395Z,92.10
2018-03-18T09:42:32.881Z,91.70
2018-03-18T09:45:00.353Z,91.70
2018-03-18T09:47:27.817Z,91.60
2018-03-18T09:49:55.273Z,91.40
2018-03-18T09:52:22.741Z,91.30
2018-03-18T09:55:03.520Z,91.40
2018-03-18T09:57:30.980Z,91.70
2018-03-18T09:59:58.437Z,91.30
2018-03-18T10:02:25.901Z,91.20
2018-03-18T10:04:53.370Z,91.20
2018-03-18T10:07:20.852Z,91.30
2018-03-18T10:09:48.303Z,91.50
2018-03-18T10:12:15.766Z,91.30
2018-03-18T10:14:43.221Z,91.10
2018-03-18T10:17:10.690Z,91.10
2018-03-18T10:19:38.171Z,91.30
2018-03-18T10:22:06.426Z,91.10
2018-03-18T10:24:33.939Z,91.10
2018-03-18T10:27:01.402Z,91.00
2018-03-18T10:29:28.920Z,90.90
2018-03-18T10:31:56.325Z,90.70
2018-03-18T10:34:23.822Z,91.10
2018-03-18T10:36:51.289Z,90.90
2018-03-18T10:39:18.761Z,90.90
2018-03-18T10:41:46.225Z,91.10
2018-03-18T10:44:13.688Z,91.20
2018-03-18T10:46:41.185Z,91.10
2018-03-18T10:49:09.421Z,90.70
2018-03-18T10:51:36.873Z,90.70
2018-03-18T10:54:04.355Z,90.60
2018-03-18T10:56:31.812Z,90.50
2018-03-18T10:58:59.293Z,90.40
2018-03-18T11:01:32.536Z,90.60
2018-03-18T11:04:05.758Z,91.00
2018-03-18T11:06:33.235Z,90.70
2018-03-18T11:09:00.717Z,90.30
2018-03-18T11:11:28.160Z,90.50
2018-03-18T11:13:55.617Z,90.70
2018-03-18T11:16:23.076Z,90.80
2018-03-18T11:18:50.555Z,90.30
2018-03-18T11:21:18.031Z,90.10
2018-03-18T11:23:46.300Z,90.30
2018-03-18T11:26:13.725Z,90.30
2018-03-18T11:28:41.208Z,90.00
2018-03-18T11:31:08.690Z,89.90
2018-03-18T11:33:36.155Z,90.10
2018-03-18T11:36:03.611Z,89.70
2018-03-18T11:38:31.829Z,89.80
2018-03-18T11:41:00.069Z,90.00
2018-03-18T11:43:27.513Z,89.80
2018-03-18T11:45:54.978Z,89.60
2018-03-18T11:48:22.428Z,90.10
2018-03-18T11:50:49.898Z,89.60
2018-03-18T11:53:17.349Z,90.10
2018-03-18T11:55:44.810Z,89.10
2018-03-18T11:58:12.275Z,89.00
2018-03-18T12:00:39.745Z,89.20
2018-03-18T12:03:07.205Z,88.70
2018-03-18T12:05:34.668Z,89.20
2018-03-18T12:08:02.162Z,89.30
2018-03-18T12:10:30.396Z,89.10
2018-03-18T12:12:57.871Z,89.10
2018-03-18T12:15:25.378Z,88.90
2018-03-18T12:17:53.597Z,89.40
2018-03-18T12:20:21.077Z,89.30
2018-03-18T12:22:48.533Z,88.70
2018-03-18T12:25:16.006Z,89.10
2018-03-18T12:27:43.457Z,89.20
2018-03-18T12:30:10.946Z,89.00
2018-03-18T12:32:38.390Z,88.20
2018-03-18T12:35:05.853Z,88.60
2018-03-18T12:37:33.316Z,88.10
2018-03-18T12:40:12.590Z,88.00
2018-03-18T12:42:52.803Z,88.30
2018-03-18T12:45:20.271Z,89.00
2018-03-18T12:47:47.743Z,88.30
2018-03-18T12:50:15.192Z,88.60
2018-03-18T12:52:42.661Z,88.90
2018-03-18T12:55:10.108Z,88.50
2018-03-18T12:57:37.606Z,89.20
2018-03-18T13:00:05.841Z,88.20
2018-03-18T13:02:33.327Z,88.20
2018-03-18T13:05:00.779Z,88.20
2018-03-18T13:07:28.244Z,88.30
2018-03-18T13:09:55.712Z,88.60
2018-03-18T13:12:23.175Z,88.30
2018-03-18T13:14:50.629Z,88.40
2018-03-18T13:17:18.110Z,88.20
2018-03-18T13:19:45.558Z,87.70
2018-03-18T13:22:13.041Z,87.30
2018-03-18T13:24:40.518Z,87.20
2018-03-18T13:27:07.953Z,87.00
2018-03-18T13:29:35.406Z,87.90
2018-03-18T13:32:02.877Z,87.40
2018-03-18T13:34:30.339Z,87.00
2018-03-18T13:36:57.826Z,87.30
2018-03-18T13:39:25.280Z,87.50
2018-03-18T13:41:54.343Z,87.00
2018-03-18T13:44:21.814Z,87.00
2018-03-18T13:46:49.297Z,88.00
2018-03-18T13:49:16.758Z,87.60
2018-03-18T13:51:44.209Z,87.90
2018-03-18T13:54:11.668Z,87.90
2018-03-18T13:56:39.131Z,87.40
2018-03-18T13:59:06.610Z,87.30
2018-03-18T14:01:34.061Z,86.90
2018-03-18T14:04:01.522Z,87.20
2018-03-18T14:06:28.972Z,87.20
2018-03-18T14:08:56.448Z,87.30
2018-03-18T14:11:23.914Z,86.90
2018-03-18T14:13:51.373Z,87.30
2018-03-18T14:16:18.835Z,87.30
2018-03-18T14:18:46.293Z,86.90
2018-03-18T14:21:13.747Z,86.90
2018-03-18T14:23:41.216Z,87.40
2018-03-18T14:26:08.668Z,86.90
2018-03-18T14:28:36.124Z,87.20
2018-03-18T14:31:03.598Z,87.40
2018-03-18T14:33:31.065Z,86.80
2018-03-18T14:35:58.534Z,86.70
2018-03-18T14:38:25.989Z,86.90
2018-03-18T14:40:53.441Z,86.70
2018-03-18T14:43:20.913Z,86.60
2018-03-18T14:45:48.380Z,86.30
2018-03-18T14:48:15.841Z,87.40
2018-03-18T14:50:43.284Z,87.30
2018-03-18T14:53:10.773Z,86.30
2018-03-18T14:55:38.224Z,86.80
2018-03-18T14:58:05.683Z,86.80
2018-03-18T15:00:33.165Z,86.30
2018-03-18T15:03:00.619Z,87.50
2018-03-18T15:05:28.090Z,87.10
2018-03-18T15:07:55.540Z,86.50
2018-03-18T15:10:23.020Z,86.70
2018-03-18T15:12:50.485Z,86.20
2018-03-18T15:15:17.963Z,85.90
2018-03-18T15:17:46.185Z,87.20
2018-03-18T15:20:13.656Z,87.20
2018-03-18T15:22:41.099Z,87.00
2018-03-18T15:25:08.567Z,86.40
2018-03-18T15:27:36.035Z,86.80
2018-03-18T15:30:03.496Z,86.80
2018-03-18T15:32:30.952Z,86.60
2018-03-18T15:34:58.422Z,86.20
2018-03-18T15:37:25.898Z,85.60
2018-03-18T15:39:53.362Z,86.80
2018-03-18T15:42:20.817Z,86.70
2018-03-18T15:44:48.278Z,86.70
2018-03-18T15:47:15.761Z,86.20
2018-03-18T15:49:43.241Z,87.20
2018-03-18T15:52:10.699Z,86.70
2018-03-18T15:54:38.169Z,86.20
2018-03-18T15:57:06.408Z,86.20
2018-03-18T15:59:33.844Z,86.00
2018-03-18T16:02:01.313Z,86.00
2018-03-18T16:04:28.772Z,86.50
2018-03-18T16:07:08.237Z,87.50
2018-03-18T16:09:35.693Z,86.60
2018-03-18T16:12:03.163Z,85.70
2018-03-18T16:14:30.617Z,86.70
2018-03-18T16:16:58.082Z,86.30
2018-03-18T16:19:25.561Z,86.40
2018-03-18T16:21:53.012Z,86.40
2018-03-18T16:24:20.479Z,85.90
2018-03-18T16:26:47.957Z,86.30
2018-03-18T16:29:27.041Z,86.40
2018-03-18T16:31:54.514Z,87.00
2018-03-18T16:34:21.966Z,86.80
2018-03-18T16:36:49.420Z,86.70
2018-03-18T16:39:16.881Z,86.50
2018-03-18T16:41:44.361Z,86.60
2018-03-18T16:44:11.844Z,85.90
2018-03-18T16:46:39.327Z,86.20
2018-03-18T16:49:06.798Z,86.10
2018-03-18T16:51:34.271Z,86.00
2018-03-18T16:54:02.510Z,86.30
2018-03-18T16:56:29.978Z,86.30
2018-03-18T16:58:57.449Z,86.80
2018-03-18T17:01:24.957Z,86.70
2018-03-18T17:03:53.148Z,86.10
2018-03-18T17:06:20.623Z,86.10
2018-03-18T17:08:48.097Z,86.10
2018-03-18T17:11:15.565Z,86.10
2018-03-18T17:13:43.037Z,86.20
2018-03-18T17:16:10.493Z,86.00
2018-03-18T17:18:37.964Z,86.30
2018-03-18T17:21:05.484Z,86.90
2018-03-18T17:23:32.958Z,86.50
2018-03-18T17:26:00.425Z,86.30
2018-03-18T17:28:27.906Z,86.60
2018-03-18T17:30:55.364Z,86.10
2018-03-18T17:33:22.824Z,86.80
2018-03-18T17:35:50.292Z,86.20
2018-03-18T17:38:17.760Z,86.60
2018-03-18T17:40:45.213Z,87.00
2018-03-18T17:43:12.689Z,86.40
2018-03-18T17:45:52.013Z,86.10
2018-03-18T17:48:31.430Z,86.90
2018-03-18T17:54:30.176Z,86.40
2018-03-18T17:56:57.635Z,86.40
2018-03-18T17:59:25.862Z,86.70
2018-03-18T18:01:53.325Z,86.60
2018-03-18T18:04:20.792Z,86.60
2018-03-18T18:06:48.258Z,86.90
2018-03-18T18:09:15.716Z,86.80
2018-03-18T18:11:43.187Z,86.80
2018-03-18T18:14:10.678Z,87.10
2018-03-18T18:16:38.913Z,87.00
2018-03-18T18:19:06.398Z,86.90
2018-03-18T18:21:33.885Z,87.00
2018-03-18T18:24:02.139Z,86.00
2018-03-18T18:26:29.604Z,86.00
2018-03-18T18:28:57.068Z,86.10
2018-03-18T18:31:24.529Z,86.50
2018-03-18T18:33:51.992Z,86.20
2018-03-18T18:36:19.452Z,86.10
2018-03-18T18:38:48.924Z,86.70
2018-03-18T18:41:16.381Z,86.90
2018-03-18T18:43:43.860Z,86.40
2018-03-18T18:46:12.077Z,87.00
2018-03-18T18:48:39.562Z,87.00
2018-03-18T18:51:07.799Z,86.80
2018-03-18T18:53:37.279Z,86.80
2018-03-18T18:56:04.777Z,87.10
2018-03-18T18:58:32.985Z,86.80
2018-03-18T19:01:01.233Z,87.20
2018-03-18T19:03:28.693Z,87.20
2018-03-18T19:05:56.157Z,86.30
2018-03-18T19:08:23.614Z,86.60
2018-03-18T19:10:51.120Z,86.70
2018-03-18T19:13:19.333Z,87.00
2018-03-18T19:15:46.804Z,86.60
2018-03-18T19:18:14.273Z,86.20
2018-03-18T19:20:41.744Z,86.50
2018-03-18T19:23:09.208Z,86.50
2018-03-18T19:25:36.680Z,86.50
2018-03-18T19:28:04.152Z,86.30
2018-03-18T19:30:31.611Z,86.30
2018-03-18T19:32:59.077Z,86.50
2018-03-18T19:35:26.555Z,86.20
2018-03-18T19:37:54.011Z,86.00
2018-03-18T19:40:21.489Z,86.90
2018-03-18T19:42:49.736Z,86.50
2018-03-18T19:45:17.204Z,86.40
2018-03-18T19:47:44.672Z,86.30
2018-03-18T19:50:12.144Z,86.00
2018-03-18T19:52:40.372Z,86.30
2018-03-18T19:55:07.842Z,86.30
2018-03-18T19:57:35.306Z,86.20
2018-03-18T20:00:02.762Z,86.50
2018-03-18T20:02:30.263Z,86.40
2018-03-18T20:04:57.724Z,86.30
2018-03-18T20:07:25.200Z,86.50
2018-03-18T20:09:52.653Z,87.10
2018-03-18T20:12:20.134Z,86.40
2018-03-18T20:14:48.387Z,86.70
2018-03-18T20:17:15.853Z,86.70
2018-03-18T20:19:43.318Z,87.10
2018-03-18T20:22:10.811Z,87.10
2018-03-18T20:24:39.042Z,87.90
2018-03-18T20:27:06.513Z,87.20
2018-03-18T20:29:33.971Z,87.00
2018-03-18T20:32:01.432Z,87.20
2018-03-18T20:34:28.884Z,87.00
2018-03-18T20:36:56.373Z,86.50
2018-03-18T20:39:23.854Z,87.40
2018-03-18T20:41:51.322Z,86.70
2018-03-18T20:44:19.549Z,87.70
2018-03-18T20:46:47.013Z,87.70
2018-03-18T20:49:14.476Z,87.70
2018-03-18T20:51:41.945Z,87.40
2018-03-18T20:54:09.435Z,86.80
2018-03-18T20:56:36.908Z,86.90
2018-03-18T20:59:04.352Z,87.10
2018-03-18T21:01:31.819Z,87.90
2018-03-18T21:03:59.274Z,87.60
2018-03-18T21:06:26.739Z,87.10
2018-03-18T21:08:54.209Z,87.00
2018-03-18T21:11:21.668Z,87.40
2018-03-18T21:13:49.137Z,87.60
2018-03-18T21:16:16.601Z,87.20
2018-03-18T21:18:44.062Z,87.20
2018-03-18T21:21:11.518Z,87.00
2018-03-18T21:23:39.001Z,87.70
2018-03-18T21:26:07.233Z,87.00
2018-03-18T21:28:34.696Z,86.90
2018-03-18T21:31:02.161Z,86.80
2018-03-18T21:33:29.649Z,87.00
2018-03-18T21:35:57.114Z,87.10
2018-03-18T21:38:24.587Z,87.50
2018-03-18T21:40:52.803Z,87.40
2018-03-18T21:43:20.279Z,87.40
2018-03-18T21:45:47.746Z,87.40
2018-03-18T21:48:15.213Z,88.00
2018-03-18T21:50:42.675Z,87.50
2018-03-18T21:53:10.145Z,87.90
2018-03-18T21:55:37.604Z,87.30
2018-03-18T21:58:05.068Z,86.80
2018-03-18T22:00:32.532Z,87.40
2018-03-18T22:02:59.985Z,87.70
2018-03-18T22:05:27.444Z,87.90
2018-03-18T22:07:54.921Z,87.60
2018-03-18T22:10:22.381Z,88.40
2018-03-18T22:12:49.839Z,88.20
2018-03-18T22:15:17.301Z,88.40
2018-03-18T22:17:44.776Z,87.70
2018-03-18T22:20:12.235Z,87.90
2018-03-18T22:22:39.692Z,88.00
2018-03-18T22:25:07.163Z,87.90
2018-03-18T22:27:34.627Z,87.60
2018-03-18T22:30:02.099Z,87.70
2018-03-18T22:32:29.577Z,87.70
2018-03-18T22:34:57.817Z,88.20
2018-03-18T22:37:25.278Z,88.20
2018-03-18T22:39:52.746Z,88.30
2018-03-18T22:42:20.210Z,88.50
2018-03-18T22:44:47.669Z,88.50
2018-03-18T22:47:15.130Z,88.10
2018-03-18T22:49:42.595Z,87.80
2018-03-18T22:52:10.061Z,88.20
2018-03-18T22:54:37.528Z,88.10
2018-03-18T22:57:04.999Z,87.60
2018-03-18T22:59:32.460Z,87.70
2018-03-18T23:01:59.921Z,88.00
2018-03-18T23:04:27.381Z,88.70
2018-03-18T23:06:54.858Z,88.40
2018-03-18T23:09:22.329Z,88.50
2018-03-18T23:11:49.796Z,88.20
2018-03-18T23:14:17.264Z,88.30
2018-03-18T23:16:44.730Z,87.40
2018-03-18T23:19:12.188Z,87.50
2018-03-18T23:21:39.663Z,87.40
2018-03-18T23:24:08.072Z,87.60
2018-03-18T23:26:35.534Z,86.40
2018-03-18T23:29:02.993Z,86.90
2018-03-18T23:31:31.226Z,86.90
2018-03-18T23:33:58.718Z,86.90
2018-03-18T23:36:26.950Z,88.20
2018-03-18T23:38:54.405Z,88.20
2018-03-18T23:41:21.868Z,87.50
2018-03-18T23:43:49.341Z,87.80
2018-03-18T23:46:16.792Z,87.80
2018-03-18T23:48:44.261Z,87.90
2018-03-18T23:51:11.729Z,87.10
2018-03-18T23:53:39.180Z,87.30
2018-03-18T23:56:06.637Z,86.90
2018-03-18T23:58:34.125Z,87.10
